createdAt,value
2023-05-10T00:00:59.189Z,56.15
2023-05-10T00:03:28.149Z,56.48
2023-05-10T00:05:55.859Z,56.87
2023-05-10T00:08:23.554Z,56.77
2023-05-10T00:10:51.224Z,56.63
2023-05-10T00:13:18.752Z,57.01
2023-05-10T00:15:46.361Z,57.24
2023-05-10T00:18:13.915Z,57.72
2023-05-10T00:20:42.821Z,57.31
2023-05-10T00:23:10.371Z,57.44
2023-05-10T00:25:37.918Z,58.17
2023-05-10T00:28:05.845Z,57.54
2023-05-10T00:30:33.417Z,58.16
2023-05-10T00:33:01.292Z,58.53
2023-05-10T00:35:29.117Z,58.40
2023-05-10T00:37:58.025Z,58.42
2023-05-10T00:40:25.825Z,59.27
2023-05-10T00:42:57.721Z,58.72
2023-05-10T00:45:25.778Z,58.98
2023-05-10T00:47:55.948Z,58.95
2023-05-10T00:50:23.920Z,59.16
2023-05-10T00:52:52.030Z,59.46
2023-05-10T00:55:20.988Z,58.88
2023-05-10T00:57:49.138Z,59.46
2023-05-10T01:00:19.137Z,59.54
2023-05-10T01:02:47.239Z,60.06
2023-05-10T01:05:15.448Z,59.99
2023-05-10T01:07:43.040Z,59.99
2023-05-10T01:10:11.946Z,59.92
2023-05-10T01:12:43.368Z,60.56
2023-05-10T01:15:12.873Z,60.31
2023-05-10T01:17:42.317Z,60.43
2023-05-10T01:20:12.363Z,60.45
2023-05-10T01:23:06.227Z,60.65
2023-05-10T01:26:08.843Z,61.13
2023-05-10T01:29:13.579Z,61.44
2023-05-10T01:32:11.245Z,61.87
2023-05-10T01:34:45.435Z,61.54
2023-05-10T01:37:17.865Z,61.36
2023-05-10T01:39:49.000Z,61.62
2023-05-10T01:42:20.965Z,62.30
2023-05-10T01:44:55.702Z,62.27
2023-05-10T01:47:32.868Z,62.28
2023-05-10T01:50:04.376Z,62.41
2023-05-10T01:52:35.473Z,62.73
2023-05-10T01:55:06.672Z,62.44
2023-05-10T01:57:36.466Z,62.92
2023-05-10T02:00:06.112Z,63.42
2023-05-10T02:02:47.660Z,63.27
2023-05-10T02:05:17.188Z,63.30
2023-05-10T02:07:45.870Z,63.56
2023-05-10T02:10:15.520Z,63.73
2023-05-10T02:12:45.232Z,64.14
2023-05-10T02:15:14.857Z,64.19
2023-05-10T02:17:44.388Z,64.27
2023-05-10T02:20:13.451Z,64.20
2023-05-10T02:22:43.560Z,64.35
2023-05-10T02:25:13.274Z,64.34
2023-05-10T02:27:43.377Z,64.81
2023-05-10T02:30:12.078Z,64.72
2023-05-10T02:32:40.813Z,64.70
2023-05-10T02:35:11.690Z,64.79
2023-05-10T02:37:40.453Z,64.97
2023-05-10T02:40:10.486Z,65.42
2023-05-10T02:42:39.804Z,65.57
2023-05-10T02:45:12.706Z,65.38
2023-05-10T02:47:40.558Z,66.00
2023-05-10T02:50:10.918Z,65.72
2023-05-10T02:52:42.702Z,65.71
2023-05-10T02:55:13.614Z,66.10
2023-05-10T02:57:48.385Z,66.73
2023-05-10T03:00:16.537Z,66.35
2023-05-10T03:02:44.295Z,66.36
2023-05-10T03:05:13.367Z,66.76
2023-05-10T03:07:40.937Z,67.00
2023-05-10T03:10:09.736Z,67.09
2023-05-10T03:12:58.744Z,66.71
2023-05-10T03:15:34.119Z,67.28
2023-05-10T03:18:07.057Z,68.06
2023-05-10T03:20:38.438Z,67.46
2023-05-10T03:23:13.117Z,67.56
2023-05-10T03:25:44.589Z,67.07
2023-05-10T03:28:14.088Z,67.50
2023-05-10T03:30:43.306Z,68.04
2023-05-10T03:33:13.685Z,68.16
2023-05-10T03:35:46.633Z,67.87
2023-05-10T03:38:15.137Z,67.63
2023-05-10T03:40:42.694Z,68.11
2023-05-10T03:43:10.432Z,68.76
2023-05-10T03:45:37.971Z,68.70
2023-05-10T03:48:06.595Z,68.34
2023-05-10T03:50:34.354Z,68.29
2023-05-10T03:53:03.706Z,68.20
2023-05-10T03:55:35.333Z,68.23
2023-05-10T03:58:02.931Z,68.41
2023-05-10T04:00:31.035Z,68.97
2023-05-10T04:02:58.595Z,68.35
2023-05-10T04:05:26.376Z,68.60
2023-05-10T04:07:54.472Z,68.33
2023-05-10T04:10:23.384Z,68.62
2023-05-10T04:12:51.023Z,68.36
2023-05-10T04:15:18.860Z,68.22
2023-05-10T04:17:46.711Z,68.80
2023-05-10T04:20:14.979Z,69.12
2023-05-10T04:22:42.824Z,68.77
2023-05-10T04:25:10.998Z,68.60
2023-05-10T04:27:40.001Z,69.48
2023-05-10T04:30:09.181Z,68.84
2023-05-10T04:32:37.180Z,69.47
2023-05-10T04:35:05.701Z,69.64
2023-05-10T04:37:33.463Z,69.15
2023-05-10T04:40:01.894Z,68.93
2023-05-10T04:42:29.662Z,68.84
2023-05-10T04:44:58.694Z,69.38
2023-05-10T04:47:26.375Z,69.50
2023-05-10T04:49:54.029Z,68.94
2023-05-10T04:52:21.695Z,69.55
2023-05-10T04:54:49.308Z,69.02
2023-05-10T04:57:17.030Z,69.17
2023-05-10T04:59:44.632Z,69.29
2023-05-10T05:02:13.597Z,69.56
2023-05-10T05:04:41.291Z,68.67
2023-05-10T05:07:08.989Z,68.53
2023-05-10T05:09:36.600Z,68.54
2023-05-10T05:12:04.620Z,68.24
2023-05-10T05:14:32.383Z,67.69
2023-05-10T05:17:00.738Z,67.63
2023-05-10T05:19:29.726Z,67.36
2023-05-10T05:21:57.323Z,67.61
2023-05-10T05:24:25.034Z,67.01
2023-05-10T05:26:52.731Z,67.19
2023-05-10T05:29:20.505Z,66.65
2023-05-10T05:31:48.283Z,66.62
2023-05-10T05:34:15.941Z,67.21
2023-05-10T05:36:44.973Z,67.09
2023-05-10T05:39:12.607Z,67.81
2023-05-10T05:41:40.281Z,67.40
2023-05-10T05:44:07.932Z,67.69
2023-05-10T05:46:35.735Z,67.02
2023-05-10T05:49:03.712Z,66.90
2023-05-10T05:51:31.930Z,66.67
2023-05-10T05:54:00.897Z,66.54
2023-05-10T05:56:28.711Z,66.07
2023-05-10T05:58:56.466Z,66.07
2023-05-10T06:01:24.110Z,64.95
2023-05-10T06:03:53.300Z,64.70
2023-05-10T06:06:21.161Z,64.72
2023-05-10T06:08:48.650Z,64.81
2023-05-10T06:11:17.542Z,64.67
2023-05-10T06:13:45.520Z,64.72
2023-05-10T06:16:13.502Z,63.14
2023-05-10T06:18:41.282Z,63.13
2023-05-10T06:21:09.074Z,63.80
2023-05-10T06:23:36.657Z,63.40
2023-05-10T06:26:04.223Z,62.67
2023-05-10T06:28:34.414Z,62.52
2023-05-10T06:31:02.471Z,63.07
2023-05-10T06:33:30.107Z,62.35
2023-05-10T06:35:58.121Z,62.81
2023-05-10T06:38:26.133Z,62.58
2023-05-10T06:40:53.744Z,62.99
2023-05-10T06:43:21.421Z,62.91
2023-05-10T06:45:51.106Z,63.16
2023-05-10T06:48:18.836Z,62.31
2023-05-10T06:50:46.444Z,61.37
2023-05-10T06:53:14.108Z,61.23
2023-05-10T06:55:41.828Z,61.38
2023-05-10T06:58:09.320Z,62.18
2023-05-10T07:00:40.114Z,61.98
2023-05-10T07:03:09.111Z,62.93
2023-05-10T07:05:36.851Z,62.38
2023-05-10T07:08:04.689Z,62.54
2023-05-10T07:10:32.205Z,62.31
2023-05-10T07:12:59.804Z,61.24
2023-05-10T07:15:27.343Z,61.47
2023-05-10T07:17:55.023Z,61.71
2023-05-10T07:20:23.937Z,61.89
2023-05-10T07:22:51.531Z,61.61
2023-05-10T07:25:19.233Z,61.91
2023-05-10T07:27:46.903Z,62.67
2023-05-10T07:30:15.187Z,61.98
2023-05-10T07:32:43.494Z,62.34
2023-05-10T07:35:11.062Z,62.53
2023-05-10T07:37:39.903Z,61.38
2023-05-10T07:40:08.928Z,60.52
2023-05-10T07:42:36.442Z,59.58
2023-05-10T07:45:04.033Z,60.73
2023-05-10T07:47:31.564Z,62.26
2023-05-10T07:49:59.388Z,60.49
2023-05-10T07:52:26.933Z,61.04
2023-05-10T07:54:57.721Z,60.97
2023-05-10T07:57:25.350Z,62.59
2023-05-10T07:59:52.867Z,60.72
2023-05-10T08:02:20.430Z,59.73
2023-05-10T08:04:47.985Z,58.89
2023-05-10T08:07:15.543Z,59.83
2023-05-10T08:09:43.278Z,59.28
2023-05-10T08:12:12.203Z,58.87
2023-05-10T08:14:39.851Z,59.69
2023-05-10T08:17:07.356Z,60.17
2023-05-10T08:19:34.915Z,60.37
2023-05-10T08:22:02.725Z,60.29
2023-05-10T08:24:30.286Z,60.16
2023-05-10T08:26:58.198Z,61.12
2023-05-10T08:29:28.498Z,61.07
2023-05-10T08:31:58.242Z,61.24
2023-05-10T08:34:26.327Z,60.62
2023-05-10T08:36:54.188Z,60.17
2023-05-10T08:39:29.879Z,59.32
2023-05-10T08:42:03.400Z,60.24
2023-05-10T08:44:33.818Z,60.71
2023-05-10T08:47:02.581Z,60.15
2023-05-10T08:49:33.722Z,59.14
2023-05-10T08:52:06.298Z,58.70
2023-05-10T08:54:34.973Z,59.19
2023-05-10T08:57:02.777Z,59.12
2023-05-10T08:59:31.989Z,59.32
2023-05-10T09:02:00.668Z,60.03
2023-05-10T09:04:28.858Z,59.15
2023-05-10T09:06:56.814Z,59.00
2023-05-10T09:09:27.166Z,59.03
2023-05-10T09:11:55.876Z,59.23
2023-05-10T09:14:25.374Z,58.67
2023-05-10T09:16:56.155Z,58.72
2023-05-10T09:19:23.893Z,59.25
2023-05-10T09:21:51.440Z,58.66
2023-05-10T09:24:18.997Z,59.40
2023-05-10T09:26:50.824Z,60.29
2023-05-10T09:29:18.451Z,60.12
2023-05-10T09:31:48.669Z,60.37
2023-05-10T09:34:22.229Z,60.06
2023-05-10T09:36:58.378Z,59.40
2023-05-10T09:39:36.024Z,60.10
2023-05-10T09:42:06.626Z,59.94
2023-05-10T09:44:34.695Z,59.37
2023-05-10T09:47:02.433Z,60.63
2023-05-10T09:49:32.031Z,60.26
2023-05-10T09:52:03.406Z,61.51
2023-05-10T09:54:31.081Z,61.49
2023-05-10T09:56:58.869Z,62.11
2023-05-10T09:59:28.127Z,61.47
2023-05-10T10:01:59.141Z,62.90
2023-05-10T10:04:27.467Z,62.45
2023-05-10T10:07:04.881Z,62.37
2023-05-10T10:09:32.856Z,61.97
2023-05-10T10:12:01.380Z,63.91
2023-05-10T10:14:29.364Z,66.43
2023-05-10T10:17:07.305Z,67.75
2023-05-10T10:19:36.747Z,69.36
2023-05-10T10:22:06.738Z,70.76
2023-05-10T10:24:34.664Z,76.09
2023-05-10T10:27:15.285Z,79.62
2023-05-10T10:29:51.772Z,83.72
2023-05-10T10:32:26.522Z,89.70
2023-05-10T10:34:55.709Z,91.90
2023-05-10T10:37:24.646Z,94.30
2023-05-10T10:39:52.248Z,96.06
2023-05-10T10:42:47.054Z,97.36
2023-05-10T10:45:15.466Z,98.68
2023-05-10T10:47:44.520Z,100.00
2023-05-10T10:50:13.799Z,100.00
2023-05-10T10:52:43.744Z,100.00
2023-05-10T10:55:13.392Z,100.00
2023-05-10T10:57:52.585Z,100.00
2023-05-10T11:00:22.795Z,100.00
2023-05-10T11:02:52.357Z,100.00
2023-05-10T11:05:27.996Z,100.00
2023-05-10T11:07:58.482Z,100.00
2023-05-10T11:10:27.221Z,100.00
2023-05-10T11:12:56.544Z,100.00
2023-05-10T11:15:31.384Z,100.00
2023-05-10T11:17:59.065Z,100.00
2023-05-10T11:20:34.174Z,100.00
2023-05-10T11:23:14.064Z,100.00
2023-05-10T11:25:44.660Z,100.00
2023-05-10T11:28:12.644Z,100.00
2023-05-10T11:30:41.669Z,100.00
2023-05-10T11:33:10.016Z,100.00
2023-05-10T11:35:44.729Z,100.00
2023-05-10T11:38:15.045Z,100.00
2023-05-10T11:40:43.378Z,100.00
2023-05-10T11:43:12.223Z,100.00
2023-05-10T11:45:41.729Z,100.00
2023-05-10T11:48:09.797Z,100.00
2023-05-10T11:50:37.369Z,100.00
2023-05-10T11:53:05.007Z,100.00
2023-05-10T11:55:36.531Z,100.00
2023-05-10T11:58:04.543Z,100.00
2023-05-10T12:00:33.470Z,100.00
2023-05-10T12:03:02.725Z,100.00
2023-05-10T12:05:34.186Z,100.00
2023-05-10T12:08:15.410Z,100.00
2023-05-10T12:10:44.413Z,100.00
2023-05-10T12:13:16.115Z,100.00
2023-05-10T12:15:44.567Z,100.00
2023-05-10T12:18:12.757Z,100.00
2023-05-10T12:20:40.574Z,100.00
2023-05-10T12:23:10.899Z,100.00
2023-05-10T12:25:39.265Z,100.00
2023-05-10T12:28:10.468Z,100.00
2023-05-10T12:30:39.055Z,100.00
2023-05-10T12:33:12.053Z,100.00
2023-05-10T12:35:50.988Z,100.00
2023-05-10T12:38:30.718Z,100.00
2023-05-10T12:40:59.416Z,100.00
2023-05-10T12:43:28.565Z,100.00
2023-05-10T12:45:56.320Z,100.00
2023-05-10T12:48:23.952Z,100.00
2023-05-10T12:50:51.483Z,100.00
2023-05-10T12:53:18.974Z,100.00
2023-05-10T12:55:46.669Z,100.00
2023-05-10T12:58:27.496Z,100.00
2023-05-10T13:01:03.555Z,100.00
2023-05-10T13:03:31.452Z,100.00
2023-05-10T13:05:59.153Z,100.00
2023-05-10T13:08:26.694Z,100.00
2023-05-10T13:10:54.388Z,100.00
2023-05-10T13:13:21.931Z,100.00
2023-05-10T13:15:49.553Z,100.00
2023-05-10T13:18:18.528Z,100.00
2023-05-10T13:20:46.147Z,100.00
2023-05-10T13:23:13.779Z,100.00
2023-05-10T13:25:41.333Z,100.00
2023-05-10T13:28:08.837Z,100.00
2023-05-10T13:30:36.464Z,100.00
2023-05-10T13:33:04.022Z,100.00
2023-05-10T13:35:32.971Z,100.00
2023-05-10T13:38:00.622Z,100.00
2023-05-10T13:40:28.978Z,100.00
2023-05-10T13:42:56.534Z,97.99
2023-05-10T13:45:24.064Z,99.11
2023-05-10T13:47:51.798Z,97.76
2023-05-10T13:50:19.994Z,96.54
2023-05-10T13:52:48.845Z,99.74
2023-05-10T13:55:16.674Z,98.85
2023-05-10T13:57:44.433Z,99.38
2023-05-10T14:00:13.010Z,98.06
2023-05-10T14:02:41.394Z,97.78
2023-05-10T14:05:09.543Z,99.04
2023-05-10T14:07:37.119Z,97.72
2023-05-10T14:10:06.525Z,97.07
2023-05-10T14:12:34.098Z,97.86
2023-05-10T14:15:02.038Z,97.33
2023-05-10T14:17:29.627Z,97.09
2023-05-10T14:19:57.176Z,96.78
2023-05-10T14:22:24.765Z,96.82
2023-05-10T14:24:52.284Z,95.94
2023-05-10T14:27:21.302Z,96.78
2023-05-10T14:29:49.227Z,98.20
2023-05-10T14:32:16.837Z,99.38
2023-05-10T14:34:44.366Z,100.00
2023-05-10T14:37:12.916Z,100.00
2023-05-10T14:39:40.472Z,100.00
2023-05-10T14:42:08.118Z,99.96
2023-05-10T14:44:37.015Z,99.18
2023-05-10T14:47:04.539Z,98.37
2023-05-10T14:49:32.454Z,98.16
2023-05-10T14:52:00.003Z,98.55
2023-05-10T14:54:28.225Z,98.42
2023-05-10T14:56:55.743Z,98.07
2023-05-10T14:59:23.417Z,98.65
2023-05-10T15:01:52.682Z,97.49
2023-05-10T15:04:20.560Z,97.52
2023-05-10T15:06:48.574Z,97.42
2023-05-10T15:09:16.471Z,95.54
2023-05-10T15:11:45.351Z,96.69
2023-05-10T15:14:12.992Z,94.87
2023-05-10T15:16:40.585Z,95.16
2023-05-10T15:19:09.602Z,95.87
2023-05-10T15:21:39.663Z,94.87
2023-05-10T15:24:07.314Z,96.44
2023-05-10T15:26:35.109Z,95.04
2023-05-10T15:29:02.692Z,95.62
2023-05-10T15:31:30.451Z,95.84
2023-05-10T15:33:59.367Z,95.61
2023-05-10T15:36:28.238Z,96.41
2023-05-10T15:38:55.850Z,96.20
2023-05-10T15:41:23.531Z,96.44
2023-05-10T15:43:51.130Z,96.83
2023-05-10T15:46:18.777Z,96.36
2023-05-10T15:48:46.447Z,94.82
2023-05-10T15:51:14.007Z,94.40
2023-05-10T15:53:56.466Z,94.41
2023-05-10T15:56:30.629Z,94.82
2023-05-10T15:58:58.175Z,94.88
2023-05-10T16:01:25.788Z,95.19
2023-05-10T16:03:53.361Z,95.45
2023-05-10T16:06:21.385Z,95.40
2023-05-10T16:08:50.263Z,95.68
2023-05-10T16:11:17.849Z,97.42
2023-05-10T16:13:45.411Z,96.52
2023-05-10T16:16:13.071Z,96.18
2023-05-10T16:18:40.783Z,97.53
2023-05-10T16:21:08.436Z,97.02
2023-05-10T16:23:36.216Z,97.14
2023-05-10T16:26:05.120Z,99.15
2023-05-10T16:28:32.686Z,100.00
2023-05-10T16:31:00.264Z,100.00
2023-05-10T16:33:27.954Z,100.00
2023-05-10T16:35:55.533Z,100.00
2023-05-10T16:38:23.137Z,100.00
2023-05-10T16:40:50.907Z,100.00
2023-05-10T16:43:20.116Z,100.00
2023-05-10T16:45:47.706Z,100.00
2023-05-10T16:48:15.522Z,100.00
2023-05-10T16:50:44.517Z,100.00
2023-05-10T16:53:12.471Z,100.00
2023-05-10T16:55:40.048Z,100.00
2023-05-10T16:58:07.555Z,100.00
2023-05-10T17:00:36.479Z,100.00
2023-05-10T17:03:04.123Z,100.00
2023-05-10T17:05:31.654Z,100.00
2023-05-10T17:07:59.206Z,100.00
2023-05-10T17:10:26.835Z,100.00
2023-05-10T17:12:54.590Z,100.00
2023-05-10T17:15:22.163Z,100.00
2023-05-10T17:17:51.296Z,100.00
2023-05-10T17:20:19.177Z,100.00
2023-05-10T17:22:46.732Z,100.00
2023-05-10T17:25:14.241Z,100.00
2023-05-10T17:27:42.726Z,100.00
2023-05-10T17:30:11.061Z,100.00
2023-05-10T17:32:38.647Z,100.00
2023-05-10T17:35:08.518Z,100.00
2023-05-10T17:37:36.094Z,100.00
2023-05-10T17:40:05.773Z,100.00
2023-05-10T17:42:33.491Z,100.00
2023-05-10T17:45:01.192Z,100.00
2023-05-10T17:47:28.799Z,100.00
2023-05-10T17:49:56.409Z,100.00
2023-05-10T17:52:25.674Z,100.00
2023-05-10T17:54:53.238Z,100.00
2023-05-10T17:57:20.886Z,100.00
2023-05-10T17:59:48.412Z,100.00
2023-05-10T18:02:15.986Z,100.00
2023-05-10T18:04:44.333Z,100.00
2023-05-10T18:07:12.379Z,100.00
2023-05-10T18:09:41.653Z,100.00
2023-05-10T18:12:09.152Z,100.00
2023-05-10T18:14:41.193Z,100.00
2023-05-10T18:17:09.464Z,100.00
2023-05-10T18:19:37.275Z,100.00
2023-05-10T18:22:04.880Z,100.00
2023-05-10T18:27:05.642Z,100.00
2023-05-10T18:29:33.154Z,100.00
2023-05-10T18:32:00.741Z,100.00
2023-05-10T18:34:28.722Z,100.00
2023-05-10T18:36:56.558Z,100.00
2023-05-10T18:39:25.073Z,100.00
2023-05-10T18:41:52.935Z,100.00
2023-05-10T18:44:23.165Z,100.00
2023-05-10T18:46:54.052Z,100.00
2023-05-10T18:49:21.719Z,100.00
2023-05-10T18:51:49.269Z,100.00
2023-05-10T18:54:16.859Z,100.00
2023-05-10T18:56:45.267Z,100.00
2023-05-10T18:59:13.301Z,100.00
2023-05-10T19:01:42.710Z,100.00
2023-05-10T19:04:10.454Z,100.00
2023-05-10T19:06:38.089Z,100.00
2023-05-10T19:09:05.846Z,100.00
2023-05-10T19:11:34.454Z,100.00
2023-05-10T19:14:02.292Z,100.00
2023-05-10T19:16:30.790Z,100.00
2023-05-10T19:19:02.478Z,100.00
2023-05-10T19:21:32.216Z,100.00
2023-05-10T19:24:01.409Z,100.00
2023-05-10T19:26:29.375Z,100.00
2023-05-10T19:28:57.513Z,100.00
2023-05-10T19:31:25.630Z,100.00
2023-05-10T19:33:53.638Z,100.00
2023-05-10T19:36:22.544Z,100.00
2023-05-10T19:38:51.580Z,100.00
2023-05-10T19:41:19.729Z,100.00
2023-05-10T19:43:47.349Z,100.00
2023-05-10T19:46:15.428Z,100.00
2023-05-10T19:48:46.836Z,100.00
2023-05-10T19:51:14.892Z,100.00
2023-05-10T19:53:44.742Z,100.00
2023-05-10T19:56:12.723Z,100.00
2023-05-10T19:58:40.890Z,100.00
2023-05-10T20:01:08.506Z,100.00
2023-05-10T20:03:36.220Z,100.00
2023-05-10T20:06:04.809Z,100.00
2023-05-10T20:08:32.405Z,100.00
2023-05-10T20:11:03.581Z,100.00
2023-05-10T20:13:31.380Z,100.00
2023-05-10T20:15:59.982Z,100.00
2023-05-10T20:18:27.965Z,100.00
2023-05-10T20:20:56.027Z,100.00
2023-05-10T20:23:23.839Z,100.00
2023-05-10T20:25:51.547Z,100.00
2023-05-10T20:28:23.080Z,100.00
2023-05-10T20:30:53.653Z,100.00
2023-05-10T20:33:21.592Z,100.00
2023-05-10T20:35:49.621Z,100.00
2023-05-10T20:38:17.960Z,100.00
2023-05-10T20:40:46.416Z,100.00
2023-05-10T20:43:14.255Z,100.00
2023-05-10T20:45:43.253Z,100.00
2023-05-10T20:48:10.957Z,100.00
2023-05-10T20:50:38.498Z,100.00
2023-05-10T20:53:06.132Z,100.00
2023-05-10T20:55:33.786Z,100.00
2023-05-10T20:58:04.146Z,100.00
2023-05-10T21:00:32.514Z,100.00
2023-05-10T21:03:01.566Z,100.00
2023-05-10T21:05:29.190Z,100.00
2023-05-10T21:07:56.834Z,100.00
2023-05-10T21:10:25.448Z,100.00
2023-05-10T21:12:53.010Z,100.00
2023-05-10T21:15:22.468Z,100.00
2023-05-10T21:17:49.996Z,100.00
2023-05-10T21:20:19.051Z,100.00
2023-05-10T21:22:46.892Z,100.00
2023-05-10T21:25:14.492Z,100.00
2023-05-10T21:27:42.078Z,100.00
2023-05-10T21:30:11.029Z,100.00
2023-05-10T21:32:38.627Z,100.00
2023-05-10T21:35:07.117Z,100.00
2023-05-10T21:37:36.001Z,100.00
2023-05-10T21:40:04.561Z,100.00
2023-05-10T21:42:32.443Z,100.00
2023-05-10T21:45:00.099Z,100.00
2023-05-10T21:47:27.935Z,100.00
2023-05-10T21:49:55.458Z,100.00
2023-05-10T21:52:22.977Z,100.00
2023-05-10T21:54:51.978Z,100.00
2023-05-10T21:57:21.371Z,100.00
2023-05-10T21:59:48.947Z,100.00
2023-05-10T22:02:16.956Z,100.00
2023-05-10T22:04:44.561Z,100.00
2023-05-10T22:07:12.214Z,100.00
2023-05-10T22:09:39.782Z,100.00
2023-05-10T22:12:08.748Z,100.00
2023-05-10T22:14:36.309Z,100.00
2023-05-10T22:17:03.930Z,100.00
2023-05-10T22:19:31.619Z,100.00
2023-05-10T22:21:59.147Z,100.00
2023-05-10T22:24:26.990Z,100.00
2023-05-10T22:26:54.907Z,100.00
2023-05-10T22:29:24.030Z,100.00
2023-05-10T22:31:51.687Z,100.00
2023-05-10T22:34:19.355Z,100.00
2023-05-10T22:36:47.095Z,100.00
2023-05-10T22:39:14.585Z,100.00
2023-05-10T22:41:42.108Z,100.00
2023-05-10T22:44:09.752Z,100.00
2023-05-10T22:46:39.272Z,100.00
2023-05-10T22:49:06.991Z,100.00
2023-05-10T22:51:35.182Z,100.00
2023-05-10T22:54:02.788Z,100.00
2023-05-10T22:56:30.342Z,100.00
2023-05-10T22:58:58.397Z,100.00
2023-05-10T23:01:26.051Z,100.00
2023-05-10T23:03:54.998Z,100.00
2023-05-10T23:06:22.466Z,100.00
2023-05-10T23:08:49.971Z,100.00
2023-05-10T23:11:17.544Z,100.00
2023-05-10T23:13:45.130Z,100.00
2023-05-10T23:16:12.759Z,100.00
2023-05-10T23:18:40.546Z,100.00
2023-05-10T23:21:09.459Z,100.00
2023-05-10T23:23:37.219Z,100.00
2023-05-10T23:26:05.143Z,100.00
2023-05-10T23:28:32.798Z,100.00
2023-05-10T23:31:00.547Z,100.00
2023-05-10T23:33:28.551Z,100.00
2023-05-10T23:35:56.103Z,100.00
2023-05-10T23:38:25.549Z,100.00
2023-05-10T23:40:53.083Z,100.00
2023-05-10T23:43:21.597Z,100.00
2023-05-10T23:45:56.108Z,100.00
2023-05-10T23:48:23.867Z,100.00
2023-05-10T23:50:51.741Z,100.00
2023-05-10T23:53:19.572Z,100.00
2023-05-10T23:55:48.424Z,100.00
2023-05-10T23:58:15.993Z,100.00
